LTFE/BJV METAR and TAF weather

Enter ICAO airport designator
Station Type Date Time Source
LTFE METAR 2020/12/05 05:50 UTC NOAA

LTFE 050550Z 11005KT 6000 FEW030 08/07 Q1016 NOSIG


Station Type Date Time Source
LTFE Decoded METAR 2020/12/05 05:50 UTC NOAA

Bodrum Milas Airport, Turkey (LTFE) 37-14-53N 027-40-55E
Dec 05, 2020 - 12:50 AM EST / 2020.12.05 0550 UTC
Wind: from the ESE (110 degrees) at 6 MPH (5 KT):0
Visibility: 3 mile(s):0
Sky conditions: mostly clear
Temperature: 46 F (8 C)
Dew Point: 44 F (7 C)
Relative Humidity: 93%
Pressure (altimeter): 30.00 in. Hg (1016 hPa)
ob: LTFE 050550Z 11005KT 6000 FEW030 08/07 Q1016 NOSIG
cycle: 6

Station Type Date Time Source
LTFE TAF 2020/12/05 06:03 UTC NOAA

TAF LTFE 050440Z 0506/0606 VRB02KT 9999 FEW035

Example: see airport list